sensor_id;sensor_type;location;lat;lon;timestamp;temperature;humidity
254;DHT22;590;48.772;8.846;2023-03-25T00:00:41;17.60;8.60
254;DHT22;590;48.772;8.846;2023-03-25T00:03:10;17.50;8.50
254;DHT22;590;48.772;8.846;2023-03-25T00:05:38;17.50;8.50
254;DHT22;590;48.772;8.846;2023-03-25T00:08:08;17.50;8.50
254;DHT22;590;48.772;8.846;2023-03-25T00:10:36;17.50;8.50
254;DHT22;590;48.772;8.846;2023-03-25T00:13:04;17.50;8.50
254;DHT22;590;48.772;8.846;2023-03-25T00:15:33;17.50;8.50
254;DHT22;590;48.772;8.846;2023-03-25T00:18:01;17.50;8.50
254;DHT22;590;48.772;8.846;2023-03-25T00:20:29;17.50;8.70
254;DHT22;590;48.772;8.846;2023-03-25T00:22:58;17.50;8.50
254;DHT22;590;48.772;8.846;2023-03-25T00:25:27;17.50;8.50
254;DHT22;590;48.772;8.846;2023-03-25T00:27:55;17.50;8.50
254;DHT22;590;48.772;8.846;2023-03-25T00:30:23;17.50;8.50
254;DHT22;590;48.772;8.846;2023-03-25T00:32:51;17.50;8.50
254;DHT22;590;48.772;8.846;2023-03-25T00:35:20;17.50;8.50
254;DHT22;590;48.772;8.846;2023-03-25T00:37:50;17.50;8.50
254;DHT22;590;48.772;8.846;2023-03-25T00:40:23;17.50;8.50
254;DHT22;590;48.772;8.846;2023-03-25T00:42:53;17.50;8.50
254;DHT22;590;48.772;8.846;2023-03-25T00:45:21;17.50;8.50
254;DHT22;590;48.772;8.846;2023-03-25T00:47:49;17.50;8.50
254;DHT22;590;48.772;8.846;2023-03-25T00:50:17;17.50;8.50
254;DHT22;590;48.772;8.846;2023-03-25T00:52:46;17.50;8.50
254;DHT22;590;48.772;8.846;2023-03-25T00:55:15;17.40;8.40
254;DHT22;590;48.772;8.846;2023-03-25T00:57:44;17.40;8.40
254;DHT22;590;48.772;8.846;2023-03-25T01:00:16;17.40;8.40
254;DHT22;590;48.772;8.846;2023-03-25T01:02:46;17.40;8.40
254;DHT22;590;48.772;8.846;2023-03-25T01:05:20;17.40;8.50
254;DHT22;590;48.772;8.846;2023-03-25T01:07:48;17.40;8.40
254;DHT22;590;48.772;8.846;2023-03-25T01:10:17;17.40;8.40
254;DHT22;590;48.772;8.846;2023-03-25T01:12:45;17.40;8.40
254;DHT22;590;48.772;8.846;2023-03-25T01:15:15;17.40;8.40
254;DHT22;590;48.772;8.846;2023-03-25T01:17:43;17.40;8.40
254;DHT22;590;48.772;8.846;2023-03-25T01:20:11;17.40;8.40
254;DHT22;590;48.772;8.846;2023-03-25T01:22:39;17.40;8.40
254;DHT22;590;48.772;8.846;2023-03-25T01:25:08;17.40;8.40
254;DHT22;590;48.772;8.846;2023-03-25T01:27:36;17.40;8.40
254;DHT22;590;48.772;8.846;2023-03-25T01:30:04;17.40;8.30
254;DHT22;590;48.772;8.846;2023-03-25T01:32:35;17.40;8.40
254;DHT22;590;48.772;8.846;2023-03-25T01:35:03;17.40;8.40
254;DHT22;590;48.772;8.846;2023-03-25T01:37:32;17.40;8.30
254;DHT22;590;48.772;8.846;2023-03-25T01:40:02;17.40;8.40
254;DHT22;590;48.772;8.846;2023-03-25T01:42:33;17.40;8.40
254;DHT22;590;48.772;8.846;2023-03-25T01:45:14;17.40;8.40
254;DHT22;590;48.772;8.846;2023-03-25T01:47:46;17.40;8.40
254;DHT22;590;48.772;8.846;2023-03-25T01:50:16;17.40;8.40
254;DHT22;590;48.772;8.846;2023-03-25T01:52:47;17.30;8.20
254;DHT22;590;48.772;8.846;2023-03-25T01:55:17;17.40;8.40
254;DHT22;590;48.772;8.846;2023-03-25T01:57:47;17.40;8.40
254;DHT22;590;48.772;8.846;2023-03-25T02:00:20;17.30;8.30
254;DHT22;590;48.772;8.846;2023-03-25T02:02:49;17.30;8.20
254;DHT22;590;48.772;8.846;2023-03-25T02:05:20;17.30;8.20
254;DHT22;590;48.772;8.846;2023-03-25T02:07:51;17.30;8.20
254;DHT22;590;48.772;8.846;2023-03-25T02:10:23;17.30;8.20
254;DHT22;590;48.772;8.846;2023-03-25T02:12:51;17.30;8.20
254;DHT22;590;48.772;8.846;2023-03-25T02:15:19;17.30;8.20
254;DHT22;590;48.772;8.846;2023-03-25T02:18:06;17.30;8.20
254;DHT22;590;48.772;8.846;2023-03-25T02:24:15;17.30;8.20
254;DHT22;590;48.772;8.846;2023-03-25T02:27:17;17.30;8.20
254;DHT22;590;48.772;8.846;2023-03-25T02:30:09;17.30;8.20
254;DHT22;590;48.772;8.846;2023-03-25T02:32:54;17.30;8.20
254;DHT22;590;48.772;8.846;2023-03-25T02:35:39;17.30;8.20
254;DHT22;590;48.772;8.846;2023-03-25T02:38:26;17.30;8.20
254;DHT22;590;48.772;8.846;2023-03-25T02:41:03;17.30;8.20
254;DHT22;590;48.772;8.846;2023-03-25T02:43:38;17.30;8.20
254;DHT22;590;48.772;8.846;2023-03-25T02:46:08;17.30;8.30
254;DHT22;590;48.772;8.846;2023-03-25T02:48:43;17.30;8.20
254;DHT22;590;48.772;8.846;2023-03-25T02:51:20;17.30;8.20
254;DHT22;590;48.772;8.846;2023-03-25T02:53:50;17.30;8.10
254;DHT22;590;48.772;8.846;2023-03-25T02:56:21;17.30;8.10
254;DHT22;590;48.772;8.846;2023-03-25T02:58:52;17.30;8.10
254;DHT22;590;48.772;8.846;2023-03-25T03:01:22;17.30;8.10
254;DHT22;590;48.772;8.846;2023-03-25T03:03:53;17.30;8.10
254;DHT22;590;48.772;8.846;2023-03-25T03:06:22;17.30;8.10
254;DHT22;590;48.772;8.846;2023-03-25T03:09:20;17.30;8.10
254;DHT22;590;48.772;8.846;2023-03-25T03:11:59;17.30;8.10
254;DHT22;590;48.772;8.846;2023-03-25T03:14:42;17.30;8.10
254;DHT22;590;48.772;8.846;2023-03-25T03:17:17;17.20;8.00
254;DHT22;590;48.772;8.846;2023-03-25T03:19:48;17.20;8.00
254;DHT22;590;48.772;8.846;2023-03-25T03:22:28;17.20;8.00
254;DHT22;590;48.772;8.846;2023-03-25T03:25:08;17.20;8.00
254;DHT22;590;48.772;8.846;2023-03-25T03:27:42;17.20;8.00
254;DHT22;590;48.772;8.846;2023-03-25T03:30:17;17.20;8.00
254;DHT22;590;48.772;8.846;2023-03-25T03:32:50;17.20;8.00
254;DHT22;590;48.772;8.846;2023-03-25T03:35:23;17.20;8.00
254;DHT22;590;48.772;8.846;2023-03-25T03:37:57;17.20;8.00
254;DHT22;590;48.772;8.846;2023-03-25T03:40:29;17.20;7.90
254;DHT22;590;48.772;8.846;2023-03-25T03:43:01;17.20;7.90
254;DHT22;590;48.772;8.846;2023-03-25T03:45:34;17.20;7.90
254;DHT22;590;48.772;8.846;2023-03-25T03:48:05;17.20;8.00
254;DHT22;590;48.772;8.846;2023-03-25T03:50:38;17.20;7.90
254;DHT22;590;48.772;8.846;2023-03-25T03:53:08;17.20;7.90
254;DHT22;590;48.772;8.846;2023-03-25T03:55:44;17.20;7.90
254;DHT22;590;48.772;8.846;2023-03-25T03:58:17;17.20;8.40
254;DHT22;590;48.772;8.846;2023-03-25T04:00:51;17.20;7.90
254;DHT22;590;48.772;8.846;2023-03-25T04:03:26;17.20;7.90
254;DHT22;590;48.772;8.846;2023-03-25T04:06:00;17.20;7.90
254;DHT22;590;48.772;8.846;2023-03-25T04:08:37;17.20;7.90
254;DHT22;590;48.772;8.846;2023-03-25T04:11:15;17.20;7.90
254;DHT22;590;48.772;8.846;2023-03-25T04:13:46;17.20;7.90
254;DHT22;590;48.772;8.846;2023-03-25T04:16:16;17.20;7.90
254;DHT22;590;48.772;8.846;2023-03-25T04:18:44;17.20;7.90
254;DHT22;590;48.772;8.846;2023-03-25T04:21:13;17.20;7.90
254;DHT22;590;48.772;8.846;2023-03-25T04:23:43;17.20;7.90
254;DHT22;590;48.772;8.846;2023-03-25T04:26:13;17.20;7.90
254;DHT22;590;48.772;8.846;2023-03-25T04:28:41;17.20;7.90
254;DHT22;590;48.772;8.846;2023-03-25T04:31:12;17.20;7.90
254;DHT22;590;48.772;8.846;2023-03-25T04:33:42;17.20;7.80
254;DHT22;590;48.772;8.846;2023-03-25T04:36:12;17.20;7.80
254;DHT22;590;48.772;8.846;2023-03-25T04:38:41;17.20;7.80
254;DHT22;590;48.772;8.846;2023-03-25T04:41:13;17.20;7.80
254;DHT22;590;48.772;8.846;2023-03-25T04:43:41;17.20;7.80
254;DHT22;590;48.772;8.846;2023-03-25T04:46:12;17.20;7.80
254;DHT22;590;48.772;8.846;2023-03-25T04:48:41;17.20;7.80
254;DHT22;590;48.772;8.846;2023-03-25T04:51:14;17.20;7.80
254;DHT22;590;48.772;8.846;2023-03-25T04:53:42;17.20;7.70
254;DHT22;590;48.772;8.846;2023-03-25T04:56:14;17.20;7.70
254;DHT22;590;48.772;8.846;2023-03-25T04:58:43;17.20;7.70
254;DHT22;590;48.772;8.846;2023-03-25T05:01:19;17.10;7.70
254;DHT22;590;48.772;8.846;2023-03-25T05:03:49;17.20;7.70
254;DHT22;590;48.772;8.846;2023-03-25T05:06:17;17.10;7.70
254;DHT22;590;48.772;8.846;2023-03-25T05:08:45;17.10;7.70
254;DHT22;590;48.772;8.846;2023-03-25T05:11:14;17.10;7.60
254;DHT22;590;48.772;8.846;2023-03-25T05:13:42;17.10;7.60
254;DHT22;590;48.772;8.846;2023-03-25T05:16:10;17.10;7.60
254;DHT22;590;48.772;8.846;2023-03-25T05:18:38;17.10;7.60
254;DHT22;590;48.772;8.846;2023-03-25T05:21:06;17.10;7.60
254;DHT22;590;48.772;8.846;2023-03-25T05:23:34;17.10;7.60
254;DHT22;590;48.772;8.846;2023-03-25T05:26:03;17.10;7.60
254;DHT22;590;48.772;8.846;2023-03-25T05:28:33;17.10;7.50
254;DHT22;590;48.772;8.846;2023-03-25T05:31:01;17.10;7.60
254;DHT22;590;48.772;8.846;2023-03-25T05:33:35;17.10;7.60
254;DHT22;590;48.772;8.846;2023-03-25T05:36:09;17.10;7.50
254;DHT22;590;48.772;8.846;2023-03-25T05:38:37;17.10;7.50
254;DHT22;590;48.772;8.846;2023-03-25T05:41:07;17.10;7.50
254;DHT22;590;48.772;8.846;2023-03-25T05:43:39;17.10;7.50
254;DHT22;590;48.772;8.846;2023-03-25T05:46:07;17.10;7.50
254;DHT22;590;48.772;8.846;2023-03-25T05:48:35;17.10;7.50
254;DHT22;590;48.772;8.846;2023-03-25T05:51:05;17.10;7.50
254;DHT22;590;48.772;8.846;2023-03-25T05:53:33;17.10;7.50
254;DHT22;590;48.772;8.846;2023-03-25T05:56:01;17.10;7.50
254;DHT22;590;48.772;8.846;2023-03-25T05:58:29;17.10;7.40
254;DHT22;590;48.772;8.846;2023-03-25T06:00:59;17.10;7.50
254;DHT22;590;48.772;8.846;2023-03-25T06:03:29;17.10;7.50
254;DHT22;590;48.772;8.846;2023-03-25T06:06:00;17.10;7.40
254;DHT22;590;48.772;8.846;2023-03-25T06:08:31;17.10;7.40
254;DHT22;590;48.772;8.846;2023-03-25T06:11:01;17.10;7.40
254;DHT22;590;48.772;8.846;2023-03-25T06:13:29;17.10;7.40
254;DHT22;590;48.772;8.846;2023-03-25T06:16:01;17.10;7.40
254;DHT22;590;48.772;8.846;2023-03-25T06:18:29;17.10;7.40
254;DHT22;590;48.772;8.846;2023-03-25T06:20:57;17.10;7.40
254;DHT22;590;48.772;8.846;2023-03-25T06:23:25;17.10;7.40
254;DHT22;590;48.772;8.846;2023-03-25T06:25:54;17.10;7.40
254;DHT22;590;48.772;8.846;2023-03-25T06:28:24;17.10;7.30
254;DHT22;590;48.772;8.846;2023-03-25T06:30:52;17.10;7.30
254;DHT22;590;48.772;8.846;2023-03-25T06:33:21;17.10;7.20
254;DHT22;590;48.772;8.846;2023-03-25T06:36:10;17.10;7.20
254;DHT22;590;48.772;8.846;2023-03-25T06:38:38;17.10;7.10
254;DHT22;590;48.772;8.846;2023-03-25T06:41:06;17.20;7.10
254;DHT22;590;48.772;8.846;2023-03-25T06:43:34;17.20;7.00
254;DHT22;590;48.772;8.846;2023-03-25T06:46:02;17.20;7.00
254;DHT22;590;48.772;8.846;2023-03-25T06:48:32;17.20;7.00
254;DHT22;590;48.772;8.846;2023-03-25T06:51:00;17.20;7.00
254;DHT22;590;48.772;8.846;2023-03-25T06:53:28;17.20;7.00
254;DHT22;590;48.772;8.846;2023-03-25T06:55:56;17.30;7.10
254;DHT22;590;48.772;8.846;2023-03-25T06:58:24;17.30;7.10
254;DHT22;590;48.772;8.846;2023-03-25T07:01:00;17.30;7.10
254;DHT22;590;48.772;8.846;2023-03-25T07:03:35;17.30;7.10
254;DHT22;590;48.772;8.846;2023-03-25T07:06:04;17.30;7.10
254;DHT22;590;48.772;8.846;2023-03-25T07:08:33;17.30;7.10
254;DHT22;590;48.772;8.846;2023-03-25T07:11:01;17.30;7.10
254;DHT22;590;48.772;8.846;2023-03-25T07:13:29;17.30;7.10
254;DHT22;590;48.772;8.846;2023-03-25T07:15:58;17.40;7.20
254;DHT22;590;48.772;8.846;2023-03-25T07:18:26;17.40;7.20
254;DHT22;590;48.772;8.846;2023-03-25T07:20:56;17.40;7.20
254;DHT22;590;48.772;8.846;2023-03-25T07:23:25;17.40;7.20
254;DHT22;590;48.772;8.846;2023-03-25T07:25:53;17.40;7.20
254;DHT22;590;48.772;8.846;2023-03-25T07:28:23;17.40;7.20
254;DHT22;590;48.772;8.846;2023-03-25T07:30:51;17.40;7.20
254;DHT22;590;48.772;8.846;2023-03-25T07:33:19;17.40;7.20
254;DHT22;590;48.772;8.846;2023-03-25T07:35:48;17.40;7.20
254;DHT22;590;48.772;8.846;2023-03-25T07:38:17;17.40;7.20
254;DHT22;590;48.772;8.846;2023-03-25T07:40:46;17.40;7.20
254;DHT22;590;48.772;8.846;2023-03-25T07:43:16;17.50;7.30
254;DHT22;590;48.772;8.846;2023-03-25T07:45:44;17.40;7.20
254;DHT22;590;48.772;8.846;2023-03-25T07:48:12;17.50;7.30
254;DHT22;590;48.772;8.846;2023-03-25T07:50:42;17.50;7.30
254;DHT22;590;48.772;8.846;2023-03-25T07:53:11;17.50;7.30
254;DHT22;590;48.772;8.846;2023-03-25T07:55:40;17.50;7.30
254;DHT22;590;48.772;8.846;2023-03-25T07:58:08;17.50;7.30
254;DHT22;590;48.772;8.846;2023-03-25T08:00:36;17.50;7.30
254;DHT22;590;48.772;8.846;2023-03-25T08:03:04;17.50;7.30
254;DHT22;590;48.772;8.846;2023-03-25T08:05:33;17.50;7.30
254;DHT22;590;48.772;8.846;2023-03-25T08:08:04;17.50;7.30
254;DHT22;590;48.772;8.846;2023-03-25T08:10:32;17.50;7.30
254;DHT22;590;48.772;8.846;2023-03-25T08:13:02;17.50;7.30
254;DHT22;590;48.772;8.846;2023-03-25T08:15:30;17.50;7.30
254;DHT22;590;48.772;8.846;2023-03-25T08:17:58;17.50;7.30
254;DHT22;590;48.772;8.846;2023-03-25T08:20:27;17.50;7.30
254;DHT22;590;48.772;8.846;2023-03-25T08:22:55;17.50;7.30
254;DHT22;590;48.772;8.846;2023-03-25T08:25:24;17.50;7.30
254;DHT22;590;48.772;8.846;2023-03-25T08:27:53;17.50;7.30
254;DHT22;590;48.772;8.846;2023-03-25T08:30:23;17.50;7.30
254;DHT22;590;48.772;8.846;2023-03-25T08:32:51;17.50;7.30
254;DHT22;590;48.772;8.846;2023-03-25T08:35:21;17.50;7.30
254;DHT22;590;48.772;8.846;2023-03-25T08:37:50;17.60;7.40
254;DHT22;590;48.772;8.846;2023-03-25T08:40:18;17.50;7.30
254;DHT22;590;48.772;8.846;2023-03-25T08:42:47;17.50;7.30
254;DHT22;590;48.772;8.846;2023-03-25T08:45:15;17.50;7.30
254;DHT22;590;48.772;8.846;2023-03-25T08:47:44;17.50;7.30
254;DHT22;590;48.772;8.846;2023-03-25T08:50:12;17.50;7.30
254;DHT22;590;48.772;8.846;2023-03-25T08:52:40;17.50;7.30
254;DHT22;590;48.772;8.846;2023-03-25T08:55:09;17.50;7.30
254;DHT22;590;48.772;8.846;2023-03-25T08:57:38;17.50;7.30
254;DHT22;590;48.772;8.846;2023-03-25T09:00:09;17.50;7.30
254;DHT22;590;48.772;8.846;2023-03-25T09:02:40;17.50;7.30
254;DHT22;590;48.772;8.846;2023-03-25T09:05:11;17.60;7.40
254;DHT22;590;48.772;8.846;2023-03-25T09:07:41;17.60;7.40
254;DHT22;590;48.772;8.846;2023-03-25T09:10:09;17.50;7.30
254;DHT22;590;48.772;8.846;2023-03-25T09:12:38;17.50;7.30
254;DHT22;590;48.772;8.846;2023-03-25T09:15:08;17.50;7.30
254;DHT22;590;48.772;8.846;2023-03-25T09:17:37;17.50;7.30
254;DHT22;590;48.772;8.846;2023-03-25T09:20:06;17.50;7.30
254;DHT22;590;48.772;8.846;2023-03-25T09:22:39;17.50;7.30
254;DHT22;590;48.772;8.846;2023-03-25T09:25:08;17.50;7.30
254;DHT22;590;48.772;8.846;2023-03-25T09:27:36;17.50;7.30
254;DHT22;590;48.772;8.846;2023-03-25T09:30:05;17.50;7.30
254;DHT22;590;48.772;8.846;2023-03-25T09:32:34;17.50;7.30
254;DHT22;590;48.772;8.846;2023-03-25T09:35:03;17.50;7.80
254;DHT22;590;48.772;8.846;2023-03-25T09:37:32;17.50;7.30
254;DHT22;590;48.772;8.846;2023-03-25T09:40:01;17.50;7.30
254;DHT22;590;48.772;8.846;2023-03-25T09:42:45;17.50;7.30
254;DHT22;590;48.772;8.846;2023-03-25T09:45:28;17.50;7.30
254;DHT22;590;48.772;8.846;2023-03-25T09:48:00;17.50;7.80
254;DHT22;590;48.772;8.846;2023-03-25T09:50:31;17.50;7.30
254;DHT22;590;48.772;8.846;2023-03-25T09:53:04;17.50;7.30
254;DHT22;590;48.772;8.846;2023-03-25T09:55:39;17.50;7.30
254;DHT22;590;48.772;8.846;2023-03-25T09:58:22;17.50;7.30
254;DHT22;590;48.772;8.846;2023-03-25T10:00:55;17.50;7.30
254;DHT22;590;48.772;8.846;2023-03-25T10:03:30;17.50;7.80
254;DHT22;590;48.772;8.846;2023-03-25T10:06:12;17.50;7.30
254;DHT22;590;48.772;8.846;2023-03-25T10:08:58;17.50;7.30
254;DHT22;590;48.772;8.846;2023-03-25T10:11:35;17.50;7.30
254;DHT22;590;48.772;8.846;2023-03-25T10:14:08;17.50;7.30
254;DHT22;590;48.772;8.846;2023-03-25T10:16:48;17.50;7.30
254;DHT22;590;48.772;8.846;2023-03-25T10:19:34;17.50;7.30
254;DHT22;590;48.772;8.846;2023-03-25T10:22:08;17.50;7.30
254;DHT22;590;48.772;8.846;2023-03-25T10:24:43;17.40;7.20
254;DHT22;590;48.772;8.846;2023-03-25T10:27:18;17.40;7.20
254;DHT22;590;48.772;8.846;2023-03-25T10:29:53;17.50;7.30
254;DHT22;590;48.772;8.846;2023-03-25T10:32:30;17.50;7.30
254;DHT22;590;48.772;8.846;2023-03-25T10:35:02;17.50;7.30
254;DHT22;590;48.772;8.846;2023-03-25T10:37:33;17.40;7.20
254;DHT22;590;48.772;8.846;2023-03-25T10:40:13;17.50;7.30
254;DHT22;590;48.772;8.846;2023-03-25T10:42:51;17.50;7.30
254;DHT22;590;48.772;8.846;2023-03-25T10:45:23;17.50;7.30
254;DHT22;590;48.772;8.846;2023-03-25T10:47:54;17.50;7.30
254;DHT22;590;48.772;8.846;2023-03-25T10:50:27;17.40;7.20
254;DHT22;590;48.772;8.846;2023-03-25T10:52:55;17.50;7.30
254;DHT22;590;48.772;8.846;2023-03-25T10:55:26;17.40;7.20
254;DHT22;590;48.772;8.846;2023-03-25T10:57:56;17.40;7.20
254;DHT22;590;48.772;8.846;2023-03-25T11:00:24;17.40;7.20
254;DHT22;590;48.772;8.846;2023-03-25T11:02:53;17.50;7.30
254;DHT22;590;48.772;8.846;2023-03-25T11:05:26;17.50;7.30
254;DHT22;590;48.772;8.846;2023-03-25T11:07:57;17.50;7.30
254;DHT22;590;48.772;8.846;2023-03-25T11:10:41;17.50;7.30
254;DHT22;590;48.772;8.846;2023-03-25T11:13:15;17.40;7.20
254;DHT22;590;48.772;8.846;2023-03-25T11:15:47;17.40;7.20
254;DHT22;590;48.772;8.846;2023-03-25T11:18:20;17.40;7.20
254;DHT22;590;48.772;8.846;2023-03-25T11:20:50;17.40;7.20
254;DHT22;590;48.772;8.846;2023-03-25T11:23:23;17.40;7.20
254;DHT22;590;48.772;8.846;2023-03-25T11:25:54;17.50;7.30
254;DHT22;590;48.772;8.846;2023-03-25T11:28:34;17.50;7.30
254;DHT22;590;48.772;8.846;2023-03-25T11:31:08;17.50;7.30
254;DHT22;590;48.772;8.846;2023-03-25T11:33:37;17.50;7.30
254;DHT22;590;48.772;8.846;2023-03-25T11:36:26;17.40;7.20
254;DHT22;590;48.772;8.846;2023-03-25T11:38:59;17.40;7.20
254;DHT22;590;48.772;8.846;2023-03-25T11:41:30;17.50;7.30
254;DHT22;590;48.772;8.846;2023-03-25T11:44:00;17.50;7.40
254;DHT22;590;48.772;8.846;2023-03-25T11:46:29;17.50;7.30
254;DHT22;590;48.772;8.846;2023-03-25T11:49:07;17.50;7.40
254;DHT22;590;48.772;8.846;2023-03-25T11:51:38;17.40;7.40
254;DHT22;590;48.772;8.846;2023-03-25T11:54:10;17.50;7.60
254;DHT22;590;48.772;8.846;2023-03-25T11:56:40;17.50;7.40
254;DHT22;590;48.772;8.846;2023-03-25T11:59:21;17.50;7.40
254;DHT22;590;48.772;8.846;2023-03-25T12:01:51;17.40;7.30
254;DHT22;590;48.772;8.846;2023-03-25T12:04:21;17.40;7.30
254;DHT22;590;48.772;8.846;2023-03-25T12:06:54;17.40;7.30
254;DHT22;590;48.772;8.846;2023-03-25T12:09:24;17.40;7.70
254;DHT22;590;48.772;8.846;2023-03-25T12:12:34;17.50;7.40
254;DHT22;590;48.772;8.846;2023-03-25T12:15:17;17.40;7.30
254;DHT22;590;48.772;8.846;2023-03-25T12:18:05;17.50;7.50
254;DHT22;590;48.772;8.846;2023-03-25T12:20:44;17.40;7.50
254;DHT22;590;48.772;8.846;2023-03-25T12:23:22;17.40;7.50
254;DHT22;590;48.772;8.846;2023-03-25T12:25:57;17.40;7.40
254;DHT22;590;48.772;8.846;2023-03-25T12:28:59;17.40;7.50
254;DHT22;590;48.772;8.846;2023-03-25T12:31:37;17.40;7.40
254;DHT22;590;48.772;8.846;2023-03-25T12:34:17;17.40;7.50
254;DHT22;590;48.772;8.846;2023-03-25T12:36:56;17.40;7.50
254;DHT22;590;48.772;8.846;2023-03-25T12:39:39;17.40;7.40
254;DHT22;590;48.772;8.846;2023-03-25T12:42:20;17.40;7.40
254;DHT22;590;48.772;8.846;2023-03-25T12:45:02;17.40;7.40
254;DHT22;590;48.772;8.846;2023-03-25T12:47:38;17.40;7.50
254;DHT22;590;48.772;8.846;2023-03-25T12:50:29;17.40;7.50
254;DHT22;590;48.772;8.846;2023-03-25T12:53:16;17.40;7.40
254;DHT22;590;48.772;8.846;2023-03-25T12:55:56;17.40;7.50
254;DHT22;590;48.772;8.846;2023-03-25T12:58:57;17.50;8.10
254;DHT22;590;48.772;8.846;2023-03-25T13:01:35;17.50;8.00
254;DHT22;590;48.772;8.846;2023-03-25T13:04:25;17.50;7.50
254;DHT22;590;48.772;8.846;2023-03-25T13:06:59;17.50;7.50
254;DHT22;590;48.772;8.846;2023-03-25T13:09:32;17.50;7.50
254;DHT22;590;48.772;8.846;2023-03-25T13:12:04;17.50;7.50
254;DHT22;590;48.772;8.846;2023-03-25T13:14:39;17.50;7.40
254;DHT22;590;48.772;8.846;2023-03-25T13:17:16;17.50;7.40
254;DHT22;590;48.772;8.846;2023-03-25T13:19:51;17.50;7.50
254;DHT22;590;48.772;8.846;2023-03-25T13:22:24;17.50;7.40
254;DHT22;590;48.772;8.846;2023-03-25T13:24:57;17.50;7.30
254;DHT22;590;48.772;8.846;2023-03-25T13:27:31;17.50;7.40
254;DHT22;590;48.772;8.846;2023-03-25T13:30:01;17.50;7.90
254;DHT22;590;48.772;8.846;2023-03-25T13:32:34;17.50;7.30
254;DHT22;590;48.772;8.846;2023-03-25T13:35:10;17.50;7.40
254;DHT22;590;48.772;8.846;2023-03-25T13:37:44;17.50;7.40
254;DHT22;590;48.772;8.846;2023-03-25T13:40:21;17.50;7.40
254;DHT22;590;48.772;8.846;2023-03-25T13:42:58;17.50;7.30
254;DHT22;590;48.772;8.846;2023-03-25T13:45:30;17.50;7.40
254;DHT22;590;48.772;8.846;2023-03-25T13:48:05;17.50;7.40
254;DHT22;590;48.772;8.846;2023-03-25T13:50:39;17.50;7.40
254;DHT22;590;48.772;8.846;2023-03-25T13:53:12;17.50;7.40
254;DHT22;590;48.772;8.846;2023-03-25T13:55:44;17.50;7.30
254;DHT22;590;48.772;8.846;2023-03-25T13:58:36;17.50;7.40
254;DHT22;590;48.772;8.846;2023-03-25T14:01:20;17.50;7.40
254;DHT22;590;48.772;8.846;2023-03-25T14:07:29;17.50;7.50
254;DHT22;590;48.772;8.846;2023-03-25T14:10:27;17.50;7.50
254;DHT22;590;48.772;8.846;2023-03-25T14:12:59;17.50;7.40
254;DHT22;590;48.772;8.846;2023-03-25T14:15:32;17.50;7.50
254;DHT22;590;48.772;8.846;2023-03-25T14:18:02;17.50;7.40
254;DHT22;590;48.772;8.846;2023-03-25T14:20:33;17.50;7.40
254;DHT22;590;48.772;8.846;2023-03-25T14:23:05;17.50;7.30
254;DHT22;590;48.772;8.846;2023-03-25T14:25:37;17.50;7.30
254;DHT22;590;48.772;8.846;2023-03-25T14:28:06;17.50;7.30
254;DHT22;590;48.772;8.846;2023-03-25T14:30:35;17.50;7.30
254;DHT22;590;48.772;8.846;2023-03-25T14:33:04;17.50;7.30
254;DHT22;590;48.772;8.846;2023-03-25T14:35:56;17.50;7.30
254;DHT22;590;48.772;8.846;2023-03-25T14:38:51;17.50;7.80
254;DHT22;590;48.772;8.846;2023-03-25T14:41:53;17.50;7.80
254;DHT22;590;48.772;8.846;2023-03-25T14:44:23;17.50;7.30
254;DHT22;590;48.772;8.846;2023-03-25T14:47:02;17.50;7.30
254;DHT22;590;48.772;8.846;2023-03-25T14:49:48;17.50;7.30
254;DHT22;590;48.772;8.846;2023-03-25T14:52:26;17.50;7.30
254;DHT22;590;48.772;8.846;2023-03-25T14:54:58;17.50;7.30
254;DHT22;590;48.772;8.846;2023-03-25T14:57:31;17.50;7.30
254;DHT22;590;48.772;8.846;2023-03-25T15:00:07;17.50;7.30
254;DHT22;590;48.772;8.846;2023-03-25T15:02:40;17.50;7.30
254;DHT22;590;48.772;8.846;2023-03-25T15:05:16;17.50;7.30
254;DHT22;590;48.772;8.846;2023-03-25T15:07:47;17.50;7.30
254;DHT22;590;48.772;8.846;2023-03-25T15:10:26;17.50;7.30
254;DHT22;590;48.772;8.846;2023-03-25T15:13:00;17.50;7.30
254;DHT22;590;48.772;8.846;2023-03-25T15:15:33;17.50;7.30
254;DHT22;590;48.772;8.846;2023-03-25T15:21:23;17.50;7.30
254;DHT22;590;48.772;8.846;2023-03-25T15:24:02;17.50;7.30
254;DHT22;590;48.772;8.846;2023-03-25T15:26:34;17.50;7.30
254;DHT22;590;48.772;8.846;2023-03-25T15:32:12;17.50;7.30
254;DHT22;590;48.772;8.846;2023-03-25T15:35:13;17.50;7.30
254;DHT22;590;48.772;8.846;2023-03-25T15:40:55;17.50;7.30
254;DHT22;590;48.772;8.846;2023-03-25T15:43:51;17.50;7.30
254;DHT22;590;48.772;8.846;2023-03-25T15:52:44;17.50;7.30
254;DHT22;590;48.772;8.846;2023-03-25T15:55:19;17.50;7.30
254;DHT22;590;48.772;8.846;2023-03-25T15:57:52;17.50;7.30
254;DHT22;590;48.772;8.846;2023-03-25T16:00:26;17.50;7.30
254;DHT22;590;48.772;8.846;2023-03-25T16:03:00;17.50;7.30
254;DHT22;590;48.772;8.846;2023-03-25T16:05:32;17.50;7.30
254;DHT22;590;48.772;8.846;2023-03-25T16:08:07;17.50;7.30
254;DHT22;590;48.772;8.846;2023-03-25T16:10:36;17.50;7.30
254;DHT22;590;48.772;8.846;2023-03-25T16:13:10;17.50;7.30
254;DHT22;590;48.772;8.846;2023-03-25T16:15:40;17.50;7.30
254;DHT22;590;48.772;8.846;2023-03-25T16:18:10;17.50;7.30
254;DHT22;590;48.772;8.846;2023-03-25T16:20:42;17.50;7.30
254;DHT22;590;48.772;8.846;2023-03-25T16:23:17;17.50;7.30
254;DHT22;590;48.772;8.846;2023-03-25T16:25:47;17.50;7.30
254;DHT22;590;48.772;8.846;2023-03-25T16:28:17;17.50;7.30
254;DHT22;590;48.772;8.846;2023-03-25T16:30:49;17.50;7.30
254;DHT22;590;48.772;8.846;2023-03-25T16:33:24;17.50;7.30
254;DHT22;590;48.772;8.846;2023-03-25T16:35:56;17.50;7.30
254;DHT22;590;48.772;8.846;2023-03-25T16:38:25;17.60;7.40
254;DHT22;590;48.772;8.846;2023-03-25T16:40:59;17.50;7.30
254;DHT22;590;48.772;8.846;2023-03-25T16:43:28;17.60;7.40
254;DHT22;590;48.772;8.846;2023-03-25T16:46:00;17.60;7.40
254;DHT22;590;48.772;8.846;2023-03-25T16:48:31;17.60;7.40
254;DHT22;590;48.772;8.846;2023-03-25T16:51:05;17.60;7.40
254;DHT22;590;48.772;8.846;2023-03-25T16:53:36;17.60;7.40
254;DHT22;590;48.772;8.846;2023-03-25T16:56:20;17.60;7.40
254;DHT22;590;48.772;8.846;2023-03-25T16:58:57;17.60;7.40
254;DHT22;590;48.772;8.846;2023-03-25T17:01:31;17.60;7.30
254;DHT22;590;48.772;8.846;2023-03-25T17:04:08;17.60;7.20
254;DHT22;590;48.772;8.846;2023-03-25T17:06:38;17.70;7.30
254;DHT22;590;48.772;8.846;2023-03-25T17:09:13;17.70;7.30
254;DHT22;590;48.772;8.846;2023-03-25T17:11:44;17.70;7.30
254;DHT22;590;48.772;8.846;2023-03-25T17:14:16;17.70;7.30
254;DHT22;590;48.772;8.846;2023-03-25T17:16:49;17.70;7.20
254;DHT22;590;48.772;8.846;2023-03-25T17:19:20;17.70;7.20
254;DHT22;590;48.772;8.846;2023-03-25T17:22:12;17.70;7.20
254;DHT22;590;48.772;8.846;2023-03-25T17:24:50;17.70;7.20
254;DHT22;590;48.772;8.846;2023-03-25T17:27:24;17.70;7.10
254;DHT22;590;48.772;8.846;2023-03-25T17:29:53;17.70;7.10
254;DHT22;590;48.772;8.846;2023-03-25T17:32:22;17.70;7.10
254;DHT22;590;48.772;8.846;2023-03-25T17:35:00;17.70;7.20
254;DHT22;590;48.772;8.846;2023-03-25T17:37:30;17.70;7.20
254;DHT22;590;48.772;8.846;2023-03-25T17:40:02;17.70;7.10
254;DHT22;590;48.772;8.846;2023-03-25T17:42:37;17.70;7.10
254;DHT22;590;48.772;8.846;2023-03-25T17:45:18;17.70;7.00
254;DHT22;590;48.772;8.846;2023-03-25T17:47:50;17.70;7.00
254;DHT22;590;48.772;8.846;2023-03-25T17:50:20;17.70;7.10
254;DHT22;590;48.772;8.846;2023-03-25T17:52:48;17.80;7.20